sensor_id;sensor_type;location;lat;lon;timestamp;temperature;humidity
9209;DHT22;4639;48.862;9.188;2022-10-16T00:01:13;17.10;99.90
9209;DHT22;4639;48.862;9.188;2022-10-16T00:03:40;17.20;99.90
9209;DHT22;4639;48.862;9.188;2022-10-16T00:06:06;17.20;99.90
9209;DHT22;4639;48.862;9.188;2022-10-16T00:08:32;17.20;99.90
9209;DHT22;4639;48.862;9.188;2022-10-16T00:11:03;17.20;99.90
9209;DHT22;4639;48.862;9.188;2022-10-16T00:13:30;17.20;99.90
9209;DHT22;4639;48.862;9.188;2022-10-16T00:15:57;17.50;99.90
9209;DHT22;4639;48.862;9.188;2022-10-16T00:18:24;17.20;99.90
9209;DHT22;4639;48.862;9.188;2022-10-16T00:20:50;17.20;99.90
9209;DHT22;4639;48.862;9.188;2022-10-16T00:23:15;17.20;99.90
9209;DHT22;4639;48.862;9.188;2022-10-16T00:25:41;17.20;99.90
9209;DHT22;4639;48.862;9.188;2022-10-16T00:28:06;17.10;99.90
9209;DHT22;4639;48.862;9.188;2022-10-16T00:30:32;17.20;99.90
9209;DHT22;4639;48.862;9.188;2022-10-16T00:32:58;17.10;99.90
9209;DHT22;4639;48.862;9.188;2022-10-16T00:35:23;17.10;99.90
9209;DHT22;4639;48.862;9.188;2022-10-16T00:37:49;17.00;99.90
9209;DHT22;4639;48.862;9.188;2022-10-16T00:40:14;17.00;99.90
9209;DHT22;4639;48.862;9.188;2022-10-16T00:42:40;16.90;99.90
9209;DHT22;4639;48.862;9.188;2022-10-16T00:45:07;16.90;99.90
9209;DHT22;4639;48.862;9.188;2022-10-16T00:47:40;16.90;99.90
9209;DHT22;4639;48.862;9.188;2022-10-16T00:50:30;16.90;99.90
9209;DHT22;4639;48.862;9.188;2022-10-16T00:52:57;16.90;99.90
9209;DHT22;4639;48.862;9.188;2022-10-16T00:55:24;16.90;99.90
9209;DHT22;4639;48.862;9.188;2022-10-16T00:57:51;17.00;99.90
9209;DHT22;4639;48.862;9.188;2022-10-16T01:00:23;16.90;99.90
9209;DHT22;4639;48.862;9.188;2022-10-16T01:02:58;16.90;99.90
9209;DHT22;4639;48.862;9.188;2022-10-16T01:05:33;16.90;99.90
9209;DHT22;4639;48.862;9.188;2022-10-16T01:08:17;17.00;99.90
9209;DHT22;4639;48.862;9.188;2022-10-16T01:10:46;16.90;99.90
9209;DHT22;4639;48.862;9.188;2022-10-16T01:14:04;16.90;99.90
9209;DHT22;4639;48.862;9.188;2022-10-16T01:16:17;16.90;99.90
9209;DHT22;4639;48.862;9.188;2022-10-16T01:18:57;17.00;99.90
9209;DHT22;4639;48.862;9.188;2022-10-16T01:21:28;17.00;99.90
9209;DHT22;4639;48.862;9.188;2022-10-16T01:24:27;16.90;99.90
9209;DHT22;4639;48.862;9.188;2022-10-16T01:27:15;16.90;99.90
9209;DHT22;4639;48.862;9.188;2022-10-16T01:32:38;16.80;99.90
9209;DHT22;4639;48.862;9.188;2022-10-16T01:35:14;16.80;99.90
9209;DHT22;4639;48.862;9.188;2022-10-16T01:37:53;16.80;99.90
9209;DHT22;4639;48.862;9.188;2022-10-16T01:40:24;16.90;99.90
9209;DHT22;4639;48.862;9.188;2022-10-16T01:43:05;16.90;99.90
9209;DHT22;4639;48.862;9.188;2022-10-16T01:45:33;17.10;99.90
9209;DHT22;4639;48.862;9.188;2022-10-16T01:48:01;17.00;99.90
9209;DHT22;4639;48.862;9.188;2022-10-16T01:50:32;17.00;99.90
9209;DHT22;4639;48.862;9.188;2022-10-16T01:52:58;17.20;99.90
9209;DHT22;4639;48.862;9.188;2022-10-16T01:55:29;17.00;99.90
9209;DHT22;4639;48.862;9.188;2022-10-16T01:57:58;17.10;99.90
9209;DHT22;4639;48.862;9.188;2022-10-16T02:00:25;17.00;99.90
9209;DHT22;4639;48.862;9.188;2022-10-16T02:02:53;17.20;99.90
9209;DHT22;4639;48.862;9.188;2022-10-16T02:05:27;16.90;99.90
9209;DHT22;4639;48.862;9.188;2022-10-16T02:07:54;16.90;99.90
9209;DHT22;4639;48.862;9.188;2022-10-16T02:10:21;16.80;99.90
9209;DHT22;4639;48.862;9.188;2022-10-16T02:15:41;16.70;99.90
9209;DHT22;4639;48.862;9.188;2022-10-16T02:18:07;16.70;99.90
9209;DHT22;4639;48.862;9.188;2022-10-16T02:20:44;16.70;99.90
9209;DHT22;4639;48.862;9.188;2022-10-16T02:23:14;16.70;99.90
9209;DHT22;4639;48.862;9.188;2022-10-16T02:25:44;16.70;99.90
9209;DHT22;4639;48.862;9.188;2022-10-16T02:28:26;16.70;99.90
9209;DHT22;4639;48.862;9.188;2022-10-16T02:30:59;16.80;99.90
9209;DHT22;4639;48.862;9.188;2022-10-16T02:33:27;16.80;99.90
9209;DHT22;4639;48.862;9.188;2022-10-16T02:35:55;16.80;99.90
9209;DHT22;4639;48.862;9.188;2022-10-16T02:38:22;16.80;99.90
9209;DHT22;4639;48.862;9.188;2022-10-16T02:40:48;16.80;99.90
9209;DHT22;4639;48.862;9.188;2022-10-16T02:43:14;16.90;99.90
9209;DHT22;4639;48.862;9.188;2022-10-16T02:45:39;16.90;99.90
9209;DHT22;4639;48.862;9.188;2022-10-16T02:48:05;16.90;99.90
9209;DHT22;4639;48.862;9.188;2022-10-16T02:50:31;16.90;99.90
9209;DHT22;4639;48.862;9.188;2022-10-16T02:52:57;17.00;99.90
9209;DHT22;4639;48.862;9.188;2022-10-16T02:55:22;17.10;99.90
9209;DHT22;4639;48.862;9.188;2022-10-16T02:57:48;17.10;99.90
9209;DHT22;4639;48.862;9.188;2022-10-16T03:00:15;17.10;99.90
9209;DHT22;4639;48.862;9.188;2022-10-16T03:02:41;17.30;99.90
9209;DHT22;4639;48.862;9.188;2022-10-16T03:05:07;17.00;99.90
9209;DHT22;4639;48.862;9.188;2022-10-16T03:07:33;16.90;99.90
9209;DHT22;4639;48.862;9.188;2022-10-16T03:09:58;16.90;99.90
9209;DHT22;4639;48.862;9.188;2022-10-16T03:12:27;16.90;99.90
9209;DHT22;4639;48.862;9.188;2022-10-16T03:14:53;16.90;99.90
9209;DHT22;4639;48.862;9.188;2022-10-16T03:17:18;16.90;99.90
9209;DHT22;4639;48.862;9.188;2022-10-16T03:19:44;16.90;99.90
9209;DHT22;4639;48.862;9.188;2022-10-16T03:22:09;16.80;99.90
9209;DHT22;4639;48.862;9.188;2022-10-16T03:24:35;16.80;99.90
9209;DHT22;4639;48.862;9.188;2022-10-16T03:27:00;16.80;99.90
9209;DHT22;4639;48.862;9.188;2022-10-16T03:29:26;16.70;99.90
9209;DHT22;4639;48.862;9.188;2022-10-16T03:31:54;16.60;99.90
9209;DHT22;4639;48.862;9.188;2022-10-16T03:34:20;16.50;99.90
9209;DHT22;4639;48.862;9.188;2022-10-16T03:36:46;16.40;99.90
9209;DHT22;4639;48.862;9.188;2022-10-16T03:39:11;16.50;99.90
9209;DHT22;4639;48.862;9.188;2022-10-16T03:41:37;16.40;99.90
9209;DHT22;4639;48.862;9.188;2022-10-16T03:44:02;16.40;99.90
9209;DHT22;4639;48.862;9.188;2022-10-16T03:46:28;16.40;99.90
9209;DHT22;4639;48.862;9.188;2022-10-16T03:48:54;16.60;99.90
9209;DHT22;4639;48.862;9.188;2022-10-16T03:51:20;16.60;99.90
9209;DHT22;4639;48.862;9.188;2022-10-16T03:53:46;16.70;99.90
9209;DHT22;4639;48.862;9.188;2022-10-16T03:56:11;16.70;99.90
9209;DHT22;4639;48.862;9.188;2022-10-16T03:58:37;16.70;99.90
9209;DHT22;4639;48.862;9.188;2022-10-16T04:01:02;16.60;99.90
9209;DHT22;4639;48.862;9.188;2022-10-16T04:03:28;16.60;99.90
9209;DHT22;4639;48.862;9.188;2022-10-16T04:05:54;16.50;99.90
9209;DHT22;4639;48.862;9.188;2022-10-16T04:08:19;16.50;99.90
9209;DHT22;4639;48.862;9.188;2022-10-16T04:10:45;16.40;99.90
9209;DHT22;4639;48.862;9.188;2022-10-16T04:13:12;16.50;99.90
9209;DHT22;4639;48.862;9.188;2022-10-16T04:15:37;16.30;99.90
9209;DHT22;4639;48.862;9.188;2022-10-16T04:18:03;16.30;99.90
9209;DHT22;4639;48.862;9.188;2022-10-16T04:20:29;16.30;99.90
9209;DHT22;4639;48.862;9.188;2022-10-16T04:22:55;16.20;99.90
9209;DHT22;4639;48.862;9.188;2022-10-16T04:25:21;16.20;99.90
9209;DHT22;4639;48.862;9.188;2022-10-16T04:27:47;16.20;99.90
9209;DHT22;4639;48.862;9.188;2022-10-16T04:30:13;16.20;99.90
9209;DHT22;4639;48.862;9.188;2022-10-16T04:32:39;16.20;99.90
9209;DHT22;4639;48.862;9.188;2022-10-16T04:35:05;16.10;99.90
9209;DHT22;4639;48.862;9.188;2022-10-16T04:37:31;16.10;99.90
9209;DHT22;4639;48.862;9.188;2022-10-16T04:39:56;16.10;99.90
9209;DHT22;4639;48.862;9.188;2022-10-16T04:42:22;16.30;99.90
9209;DHT22;4639;48.862;9.188;2022-10-16T04:44:47;16.30;99.90
9209;DHT22;4639;48.862;9.188;2022-10-16T04:47:13;16.40;99.90
9209;DHT22;4639;48.862;9.188;2022-10-16T04:49:39;16.40;99.90
9209;DHT22;4639;48.862;9.188;2022-10-16T04:52:04;16.40;99.90
9209;DHT22;4639;48.862;9.188;2022-10-16T04:54:30;16.30;99.90
9209;DHT22;4639;48.862;9.188;2022-10-16T04:56:56;16.30;99.90
9209;DHT22;4639;48.862;9.188;2022-10-16T04:59:22;16.40;99.90
9209;DHT22;4639;48.862;9.188;2022-10-16T05:01:48;16.30;99.90
9209;DHT22;4639;48.862;9.188;2022-10-16T05:04:14;16.30;99.90
9209;DHT22;4639;48.862;9.188;2022-10-16T05:06:41;16.30;99.90
9209;DHT22;4639;48.862;9.188;2022-10-16T05:09:07;16.30;99.90
9209;DHT22;4639;48.862;9.188;2022-10-16T05:11:33;16.30;99.90
9209;DHT22;4639;48.862;9.188;2022-10-16T05:13:59;16.20;99.90
9209;DHT22;4639;48.862;9.188;2022-10-16T05:16:24;16.20;99.90
9209;DHT22;4639;48.862;9.188;2022-10-16T05:18:51;16.30;99.90
9209;DHT22;4639;48.862;9.188;2022-10-16T05:21:17;16.20;99.90
9209;DHT22;4639;48.862;9.188;2022-10-16T05:23:42;16.20;99.90
9209;DHT22;4639;48.862;9.188;2022-10-16T05:26:08;16.10;99.90
9209;DHT22;4639;48.862;9.188;2022-10-16T05:28:34;16.10;99.90
9209;DHT22;4639;48.862;9.188;2022-10-16T05:31:07;16.20;99.90
9209;DHT22;4639;48.862;9.188;2022-10-16T05:33:33;16.10;99.90
9209;DHT22;4639;48.862;9.188;2022-10-16T05:36:06;16.10;99.90
9209;DHT22;4639;48.862;9.188;2022-10-16T05:38:36;16.10;99.90
9209;DHT22;4639;48.862;9.188;2022-10-16T05:41:03;16.20;99.90
9209;DHT22;4639;48.862;9.188;2022-10-16T05:43:29;16.30;99.90
9209;DHT22;4639;48.862;9.188;2022-10-16T05:46:00;16.40;99.90
9209;DHT22;4639;48.862;9.188;2022-10-16T05:48:26;16.40;99.90
9209;DHT22;4639;48.862;9.188;2022-10-16T05:51:02;16.30;99.90
9209;DHT22;4639;48.862;9.188;2022-10-16T05:53:30;16.20;99.90
9209;DHT22;4639;48.862;9.188;2022-10-16T05:55:56;16.10;99.90
9209;DHT22;4639;48.862;9.188;2022-10-16T05:58:22;16.10;99.90
9209;DHT22;4639;48.862;9.188;2022-10-16T06:01:03;16.20;99.90
9209;DHT22;4639;48.862;9.188;2022-10-16T06:03:28;16.20;99.90
9209;DHT22;4639;48.862;9.188;2022-10-16T06:05:54;16.50;99.90
9209;DHT22;4639;48.862;9.188;2022-10-16T06:08:21;16.30;99.90
9209;DHT22;4639;48.862;9.188;2022-10-16T06:10:47;16.40;99.90
9209;DHT22;4639;48.862;9.188;2022-10-16T06:13:13;16.40;99.90
9209;DHT22;4639;48.862;9.188;2022-10-16T06:15:41;16.40;99.90
9209;DHT22;4639;48.862;9.188;2022-10-16T06:18:08;16.30;99.90
9209;DHT22;4639;48.862;9.188;2022-10-16T06:20:34;16.20;99.90
9209;DHT22;4639;48.862;9.188;2022-10-16T06:23:00;16.20;99.90
9209;DHT22;4639;48.862;9.188;2022-10-16T06:25:25;16.20;99.90
9209;DHT22;4639;48.862;9.188;2022-10-16T06:27:51;16.20;99.90
9209;DHT22;4639;48.862;9.188;2022-10-16T06:30:16;16.40;99.90
9209;DHT22;4639;48.862;9.188;2022-10-16T06:32:42;16.20;99.90
9209;DHT22;4639;48.862;9.188;2022-10-16T06:35:08;16.20;99.90
9209;DHT22;4639;48.862;9.188;2022-10-16T06:37:33;16.20;99.90
9209;DHT22;4639;48.862;9.188;2022-10-16T06:39:59;16.20;99.90
9209;DHT22;4639;48.862;9.188;2022-10-16T06:42:25;16.10;99.90
9209;DHT22;4639;48.862;9.188;2022-10-16T06:44:51;16.00;99.90
9209;DHT22;4639;48.862;9.188;2022-10-16T06:47:16;15.90;99.90
9209;DHT22;4639;48.862;9.188;2022-10-16T06:49:42;15.90;99.90
9209;DHT22;4639;48.862;9.188;2022-10-16T06:52:07;15.90;99.90
9209;DHT22;4639;48.862;9.188;2022-10-16T06:54:33;15.90;99.90
9209;DHT22;4639;48.862;9.188;2022-10-16T06:56:58;16.00;99.90
9209;DHT22;4639;48.862;9.188;2022-10-16T06:59:25;16.00;99.90
9209;DHT22;4639;48.862;9.188;2022-10-16T07:01:51;16.10;99.90
9209;DHT22;4639;48.862;9.188;2022-10-16T07:04:16;16.10;99.90
9209;DHT22;4639;48.862;9.188;2022-10-16T07:07:00;16.10;99.90
9209;DHT22;4639;48.862;9.188;2022-10-16T07:09:26;16.10;99.90
9209;DHT22;4639;48.862;9.188;2022-10-16T07:11:51;16.20;99.90
9209;DHT22;4639;48.862;9.188;2022-10-16T07:14:19;16.20;99.90
9209;DHT22;4639;48.862;9.188;2022-10-16T07:16:45;16.30;99.90
9209;DHT22;4639;48.862;9.188;2022-10-16T07:19:11;16.40;99.90
9209;DHT22;4639;48.862;9.188;2022-10-16T07:21:40;16.40;99.90
9209;DHT22;4639;48.862;9.188;2022-10-16T07:24:07;16.50;99.90
9209;DHT22;4639;48.862;9.188;2022-10-16T07:26:36;16.50;99.90
9209;DHT22;4639;48.862;9.188;2022-10-16T07:29:03;16.50;99.90
9209;DHT22;4639;48.862;9.188;2022-10-16T07:31:28;16.60;99.90
9209;DHT22;4639;48.862;9.188;2022-10-16T07:33:54;16.60;99.90
9209;DHT22;4639;48.862;9.188;2022-10-16T07:36:20;16.70;99.90
9209;DHT22;4639;48.862;9.188;2022-10-16T07:38:46;16.60;99.90
9209;DHT22;4639;48.862;9.188;2022-10-16T07:41:17;16.60;99.90
9209;DHT22;4639;48.862;9.188;2022-10-16T07:43:50;16.70;99.90
9209;DHT22;4639;48.862;9.188;2022-10-16T07:46:17;16.70;99.90
9209;DHT22;4639;48.862;9.188;2022-10-16T07:48:43;16.70;99.90
9209;DHT22;4639;48.862;9.188;2022-10-16T07:51:16;16.80;99.90
9209;DHT22;4639;48.862;9.188;2022-10-16T07:53:42;16.70;99.90
9209;DHT22;4639;48.862;9.188;2022-10-16T07:56:08;16.60;99.90
9209;DHT22;4639;48.862;9.188;2022-10-16T07:58:34;16.60;99.90
9209;DHT22;4639;48.862;9.188;2022-10-16T08:01:07;16.60;99.90
9209;DHT22;4639;48.862;9.188;2022-10-16T08:03:33;16.70;99.90
9209;DHT22;4639;48.862;9.188;2022-10-16T08:05:59;16.70;99.90
9209;DHT22;4639;48.862;9.188;2022-10-16T08:08:26;16.70;99.90
9209;DHT22;4639;48.862;9.188;2022-10-16T08:10:52;16.90;99.90
9209;DHT22;4639;48.862;9.188;2022-10-16T08:13:18;16.90;99.90
9209;DHT22;4639;48.862;9.188;2022-10-16T08:15:44;16.90;99.90
9209;DHT22;4639;48.862;9.188;2022-10-16T08:18:11;16.90;99.90
9209;DHT22;4639;48.862;9.188;2022-10-16T08:20:37;17.00;99.90
9209;DHT22;4639;48.862;9.188;2022-10-16T08:23:03;17.00;99.90
9209;DHT22;4639;48.862;9.188;2022-10-16T08:25:29;17.10;99.90
9209;DHT22;4639;48.862;9.188;2022-10-16T08:27:54;17.20;99.90
9209;DHT22;4639;48.862;9.188;2022-10-16T08:30:22;17.60;99.90
9209;DHT22;4639;48.862;9.188;2022-10-16T08:32:48;18.00;99.90
9209;DHT22;4639;48.862;9.188;2022-10-16T08:35:14;18.30;99.90
9209;DHT22;4639;48.862;9.188;2022-10-16T08:37:40;18.30;99.90
9209;DHT22;4639;48.862;9.188;2022-10-16T08:40:07;18.20;99.90
9209;DHT22;4639;48.862;9.188;2022-10-16T08:48:50;18.20;99.90
9209;DHT22;4639;48.862;9.188;2022-10-16T08:51:23;18.10;99.90
9209;DHT22;4639;48.862;9.188;2022-10-16T08:53:56;18.20;99.90
9209;DHT22;4639;48.862;9.188;2022-10-16T08:56:23;18.20;99.90
9209;DHT22;4639;48.862;9.188;2022-10-16T08:58:50;18.20;99.90
9209;DHT22;4639;48.862;9.188;2022-10-16T09:01:18;18.20;99.90
9209;DHT22;4639;48.862;9.188;2022-10-16T09:06:30;18.30;99.90
9209;DHT22;4639;48.862;9.188;2022-10-16T09:11:45;18.40;99.90
9209;DHT22;4639;48.862;9.188;2022-10-16T09:14:40;18.40;99.90
9209;DHT22;4639;48.862;9.188;2022-10-16T09:20:18;18.50;99.90
9209;DHT22;4639;48.862;9.188;2022-10-16T09:22:45;18.60;99.90
9209;DHT22;4639;48.862;9.188;2022-10-16T09:25:20;18.80;99.90
9209;DHT22;4639;48.862;9.188;2022-10-16T09:27:47;19.30;99.90
9209;DHT22;4639;48.862;9.188;2022-10-16T09:30:16;19.60;99.90
9209;DHT22;4639;48.862;9.188;2022-10-16T09:32:43;19.60;99.90
9209;DHT22;4639;48.862;9.188;2022-10-16T09:35:49;19.80;99.90
9209;DHT22;4639;48.862;9.188;2022-10-16T09:38:41;20.10;99.90
9209;DHT22;4639;48.862;9.188;2022-10-16T09:41:21;20.20;99.90
9209;DHT22;4639;48.862;9.188;2022-10-16T09:46:29;20.10;99.90
9209;DHT22;4639;48.862;9.188;2022-10-16T09:48:57;20.00;99.90
9209;DHT22;4639;48.862;9.188;2022-10-16T09:51:35;19.90;99.90
9209;DHT22;4639;48.862;9.188;2022-10-16T09:56:36;19.90;99.90
9209;DHT22;4639;48.862;9.188;2022-10-16T09:59:14;20.00;99.90
9209;DHT22;4639;48.862;9.188;2022-10-16T10:01:42;20.60;99.90
9209;DHT22;4639;48.862;9.188;2022-10-16T10:04:10;21.40;99.90
9209;DHT22;4639;48.862;9.188;2022-10-16T10:06:51;21.90;99.90
9209;DHT22;4639;48.862;9.188;2022-10-16T10:16:46;22.40;99.90
9209;DHT22;4639;48.862;9.188;2022-10-16T10:19:51;22.50;99.90
9209;DHT22;4639;48.862;9.188;2022-10-16T10:24:55;22.80;99.90
9209;DHT22;4639;48.862;9.188;2022-10-16T10:27:26;22.90;99.90
9209;DHT22;4639;48.862;9.188;2022-10-16T10:30:20;22.80;99.90
9209;DHT22;4639;48.862;9.188;2022-10-16T10:33:00;23.20;99.90
9209;DHT22;4639;48.862;9.188;2022-10-16T10:41:26;24.90;99.90
9209;DHT22;4639;48.862;9.188;2022-10-16T10:50:01;24.60;99.90
9209;DHT22;4639;48.862;9.188;2022-10-16T11:03:46;25.60;99.90
9209;DHT22;4639;48.862;9.188;2022-10-16T11:06:20;26.00;99.90
9209;DHT22;4639;48.862;9.188;2022-10-16T11:09:13;26.40;99.90
9209;DHT22;4639;48.862;9.188;2022-10-16T11:11:47;26.40;99.90
9209;DHT22;4639;48.862;9.188;2022-10-16T11:16:50;26.70;99.90
9209;DHT22;4639;48.862;9.188;2022-10-16T11:22:32;26.90;99.90
9209;DHT22;4639;48.862;9.188;2022-10-16T11:27:43;26.10;99.90
9209;DHT22;4639;48.862;9.188;2022-10-16T11:38:46;25.90;99.90
9209;DHT22;4639;48.862;9.188;2022-10-16T11:46:32;26.10;99.90
9209;DHT22;4639;48.862;9.188;2022-10-16T11:49:14;26.00;99.90
9209;DHT22;4639;48.862;9.188;2022-10-16T11:51:45;26.10;99.90
9209;DHT22;4639;48.862;9.188;2022-10-16T11:54:35;26.20;99.90
9209;DHT22;4639;48.862;9.188;2022-10-16T11:57:18;26.40;99.90
9209;DHT22;4639;48.862;9.188;2022-10-16T11:59:52;26.30;99.90
9209;DHT22;4639;48.862;9.188;2022-10-16T12:05:33;26.40;99.90
9209;DHT22;4639;48.862;9.188;2022-10-16T12:08:12;26.20;99.90
9209;DHT22;4639;48.862;9.188;2022-10-16T12:10:40;26.50;99.90
9209;DHT22;4639;48.862;9.188;2022-10-16T12:13:28;26.70;99.90
9209;DHT22;4639;48.862;9.188;2022-10-16T12:16:24;27.00;99.90
9209;DHT22;4639;48.862;9.188;2022-10-16T12:19:02;27.00;99.90
9209;DHT22;4639;48.862;9.188;2022-10-16T12:21:31;26.90;99.90
9209;DHT22;4639;48.862;9.188;2022-10-16T12:23:58;26.90;99.90
9209;DHT22;4639;48.862;9.188;2022-10-16T12:26:33;27.00;99.90
9209;DHT22;4639;48.862;9.188;2022-10-16T12:29:23;27.10;99.90
9209;DHT22;4639;48.862;9.188;2022-10-16T12:31:53;27.00;99.90
9209;DHT22;4639;48.862;9.188;2022-10-16T12:36:48;26.70;99.90
9209;DHT22;4639;48.862;9.188;2022-10-16T12:39:31;26.70;99.90
9209;DHT22;4639;48.862;9.188;2022-10-16T12:42:05;26.50;99.90
9209;DHT22;4639;48.862;9.188;2022-10-16T12:44:35;26.60;99.90
9209;DHT22;4639;48.862;9.188;2022-10-16T12:47:02;26.80;99.90
9209;DHT22;4639;48.862;9.188;2022-10-16T12:51:53;26.70;99.90
9209;DHT22;4639;48.862;9.188;2022-10-16T12:54:52;26.70;99.90
9209;DHT22;4639;48.862;9.188;2022-10-16T13:03:11;27.50;99.90
9209;DHT22;4639;48.862;9.188;2022-10-16T13:08:41;28.00;99.90
9209;DHT22;4639;48.862;9.188;2022-10-16T13:13:48;28.00;99.90
9209;DHT22;4639;48.862;9.188;2022-10-16T13:16:38;28.00;99.90
9209;DHT22;4639;48.862;9.188;2022-10-16T13:22:02;28.10;99.90
9209;DHT22;4639;48.862;9.188;2022-10-16T13:27:39;27.80;99.90
9209;DHT22;4639;48.862;9.188;2022-10-16T13:32:38;27.30;99.90
9209;DHT22;4639;48.862;9.188;2022-10-16T13:35:19;27.20;99.90
9209;DHT22;4639;48.862;9.188;2022-10-16T13:37:44;26.90;99.90
9209;DHT22;4639;48.862;9.188;2022-10-16T13:40:21;26.60;99.90
9209;DHT22;4639;48.862;9.188;2022-10-16T13:42:47;26.50;99.90
9209;DHT22;4639;48.862;9.188;2022-10-16T13:45:24;26.40;99.90
9209;DHT22;4639;48.862;9.188;2022-10-16T13:48:08;26.40;99.90
9209;DHT22;4639;48.862;9.188;2022-10-16T13:50:34;26.30;99.90
9209;DHT22;4639;48.862;9.188;2022-10-16T13:53:04;26.20;99.90
9209;DHT22;4639;48.862;9.188;2022-10-16T13:55:31;26.20;99.90
9209;DHT22;4639;48.862;9.188;2022-10-16T13:58:14;26.30;99.90
9209;DHT22;4639;48.862;9.188;2022-10-16T14:00:41;26.40;99.90
9209;DHT22;4639;48.862;9.188;2022-10-16T14:03:18;26.60;99.90
9209;DHT22;4639;48.862;9.188;2022-10-16T14:05:58;26.70;99.90
9209;DHT22;4639;48.862;9.188;2022-10-16T14:08:26;26.80;99.90
9209;DHT22;4639;48.862;9.188;2022-10-16T14:10:57;26.40;99.90
9209;DHT22;4639;48.862;9.188;2022-10-16T14:13:32;26.20;99.90
9209;DHT22;4639;48.862;9.188;2022-10-16T14:16:05;26.00;99.90
9209;DHT22;4639;48.862;9.188;2022-10-16T14:18:31;25.90;99.90
9209;DHT22;4639;48.862;9.188;2022-10-16T14:21:04;25.70;99.90
9209;DHT22;4639;48.862;9.188;2022-10-16T14:23:35;25.70;99.90
9209;DHT22;4639;48.862;9.188;2022-10-16T14:28:35;25.50;99.90
9209;DHT22;4639;48.862;9.188;2022-10-16T14:31:02;25.40;99.90
9209;DHT22;4639;48.862;9.188;2022-10-16T14:38:25;25.10;99.90
9209;DHT22;4639;48.862;9.188;2022-10-16T14:40:51;25.00;99.90
9209;DHT22;4639;48.862;9.188;2022-10-16T14:43:31;25.00;99.90
9209;DHT22;4639;48.862;9.188;2022-10-16T14:45:57;25.00;99.90
9209;DHT22;4639;48.862;9.188;2022-10-16T14:48:24;24.90;99.90
9209;DHT22;4639;48.862;9.188;2022-10-16T14:50:50;25.00;99.90
9209;DHT22;4639;48.862;9.188;2022-10-16T14:53:16;25.00;99.90
9209;DHT22;4639;48.862;9.188;2022-10-16T14:55:42;25.10;99.90
9209;DHT22;4639;48.862;9.188;2022-10-16T14:58:20;25.10;99.90
9209;DHT22;4639;48.862;9.188;2022-10-16T15:00:47;25.30;99.90
9209;DHT22;4639;48.862;9.188;2022-10-16T15:03:12;25.10;99.90
9209;DHT22;4639;48.862;9.188;2022-10-16T15:05:38;25.20;99.90
9209;DHT22;4639;48.862;9.188;2022-10-16T15:08:04;25.30;99.90
9209;DHT22;4639;48.862;9.188;2022-10-16T15:10:38;25.30;99.90
9209;DHT22;4639;48.862;9.188;2022-10-16T15:13:04;25.30;99.90
9209;DHT22;4639;48.862;9.188;2022-10-16T15:15:38;25.30;99.90
9209;DHT22;4639;48.862;9.188;2022-10-16T15:18:05;25.50;99.90
9209;DHT22;4639;48.862;9.188;2022-10-16T15:20:34;25.60;99.90
9209;DHT22;4639;48.862;9.188;2022-10-16T15:23:05;25.70;99.90
9209;DHT22;4639;48.862;9.188;2022-10-16T15:25:39;25.70;99.90
9209;DHT22;4639;48.862;9.188;2022-10-16T15:28:07;25.60;99.90
9209;DHT22;4639;48.862;9.188;2022-10-16T15:30:34;25.50;99.90
9209;DHT22;4639;48.862;9.188;2022-10-16T15:33:01;25.50;99.90
9209;DHT22;4639;48.862;9.188;2022-10-16T15:35:27;25.40;99.90
9209;DHT22;4639;48.862;9.188;2022-10-16T15:37:53;25.40;99.90
9209;DHT22;4639;48.862;9.188;2022-10-16T15:40:20;25.30;99.90
9209;DHT22;4639;48.862;9.188;2022-10-16T15:42:46;25.20;99.90
9209;DHT22;4639;48.862;9.188;2022-10-16T15:45:12;25.10;99.90
9209;DHT22;4639;48.862;9.188;2022-10-16T15:47:38;25.10;99.90
9209;DHT22;4639;48.862;9.188;2022-10-16T15:50:04;25.00;99.90
9209;DHT22;4639;48.862;9.188;2022-10-16T15:52:30;24.90;99.90
9209;DHT22;4639;48.862;9.188;2022-10-16T15:54:57;24.80;99.90
9209;DHT22;4639;48.862;9.188;2022-10-16T15:57:23;24.70;99.90
9209;DHT22;4639;48.862;9.188;2022-10-16T15:59:50;24.60;99.90
9209;DHT22;4639;48.862;9.188;2022-10-16T16:02:16;24.50;99.90
9209;DHT22;4639;48.862;9.188;2022-10-16T16:04:41;24.50;99.90
9209;DHT22;4639;48.862;9.188;2022-10-16T16:07:07;24.40;99.90
9209;DHT22;4639;48.862;9.188;2022-10-16T16:09:33;24.30;99.90
9209;DHT22;4639;48.862;9.188;2022-10-16T16:11:58;24.30;99.90
9209;DHT22;4639;48.862;9.188;2022-10-16T16:14:27;24.20;99.90
9209;DHT22;4639;48.862;9.188;2022-10-16T16:16:54;24.10;99.90
9209;DHT22;4639;48.862;9.188;2022-10-16T16:19:20;24.00;99.90
9209;DHT22;4639;48.862;9.188;2022-10-16T16:21:47;24.00;99.90
9209;DHT22;4639;48.862;9.188;2022-10-16T16:24:12;23.90;99.90
9209;DHT22;4639;48.862;9.188;2022-10-16T16:26:38;23.70;99.90
9209;DHT22;4639;48.862;9.188;2022-10-16T16:29:13;23.70;99.90
9209;DHT22;4639;48.862;9.188;2022-10-16T16:31:40;23.60;99.90
9209;DHT22;4639;48.862;9.188;2022-10-16T16:34:06;23.50;99.90
9209;DHT22;4639;48.862;9.188;2022-10-16T16:36:32;23.60;99.90
9209;DHT22;4639;48.862;9.188;2022-10-16T16:38:57;23.30;99.90
9209;DHT22;4639;48.862;9.188;2022-10-16T16:41:26;23.20;99.90
9209;DHT22;4639;48.862;9.188;2022-10-16T16:43:52;23.10;99.90
9209;DHT22;4639;48.862;9.188;2022-10-16T16:46:19;23.00;99.90
9209;DHT22;4639;48.862;9.188;2022-10-16T16:48:45;22.90;99.90
9209;DHT22;4639;48.862;9.188;2022-10-16T16:51:14;22.80;99.90
9209;DHT22;4639;48.862;9.188;2022-10-16T16:53:43;22.80;99.90
9209;DHT22;4639;48.862;9.188;2022-10-16T16:56:10;22.70;99.90
9209;DHT22;4639;48.862;9.188;2022-10-16T16:58:35;22.80;99.90
9209;DHT22;4639;48.862;9.188;2022-10-16T17:01:02;22.60;99.90
9209;DHT22;4639;48.862;9.188;2022-10-16T17:03:32;22.50;99.90
9209;DHT22;4639;48.862;9.188;2022-10-16T17:06:00;22.50;99.90
9209;DHT22;4639;48.862;9.188;2022-10-16T17:08:26;22.50;99.90
9209;DHT22;4639;48.862;9.188;2022-10-16T17:10:51;22.50;99.90
9209;DHT22;4639;48.862;9.188;2022-10-16T17:13:21;22.40;99.90
9209;DHT22;4639;48.862;9.188;2022-10-16T17:15:48;22.40;99.90
9209;DHT22;4639;48.862;9.188;2022-10-16T17:18:15;22.50;99.90
9209;DHT22;4639;48.862;9.188;2022-10-16T17:20:41;22.30;99.90
9209;DHT22;4639;48.862;9.188;2022-10-16T17:23:07;22.20;99.90
9209;DHT22;4639;48.862;9.188;2022-10-16T17:25:35;22.20;99.90
9209;DHT22;4639;48.862;9.188;2022-10-16T17:28:01;22.20;99.90
9209;DHT22;4639;48.862;9.188;2022-10-16T17:30:27;21.90;99.90
9209;DHT22;4639;48.862;9.188;2022-10-16T17:32:53;21.80;99.90
9209;DHT22;4639;48.862;9.188;2022-10-16T17:35:18;21.70;99.90
9209;DHT22;4639;48.862;9.188;2022-10-16T17:37:44;21.90;99.90
9209;DHT22;4639;48.862;9.188;2022-10-16T17:40:10;21.60;99.90
9209;DHT22;4639;48.862;9.188;2022-10-16T17:42:38;21.60;99.90
9209;DHT22;4639;48.862;9.188;2022-10-16T17:45:04;21.50;99.90
9209;DHT22;4639;48.862;9.188;2022-10-16T17:47:30;21.50;99.90
9209;DHT22;4639;48.862;9.188;2022-10-16T17:49:55;21.60;99.90
9209;DHT22;4639;48.862;9.188;2022-10-16T17:52:23;21.40;99.90
9209;DHT22;4639;48.862;9.188;2022-10-16T17:54:49;21.40;99.90
9209;DHT22;4639;48.862;9.188;2022-10-16T17:57:16;21.40;99.90
9209;DHT22;4639;48.862;9.188;2022-10-16T17:59:42;21.20;99.90
9209;DHT22;4639;48.862;9.188;2022-10-16T18:02:09;21.10;99.90
9209;DHT22;4639;48.862;9.188;2022-10-16T18:04:35;21.00;99.90
9209;DHT22;4639;48.862;9.188;2022-10-16T18:07:01;20.90;99.90
9209;DHT22;4639;48.862;9.188;2022-10-16T18:09:27;20.70;99.90
9209;DHT22;4639;48.862;9.188;2022-10-16T18:11:53;20.70;99.90